Imagination — C6FN2 — position and weather

sailwx.info

Track history (hours):
 
Tides and Currents Weather Stations Pressure Air Temp Water Temp Dewpoint Dewpoint Depression Visibility Wind Speed Wind Dir Waves Ship Positions

Imagination

Operator: Carnival Cruise Lines

Last reported at 2018-Feb-20 14:38 UTC. Time now 2018-Feb-20 15:30 UTC.
Position N 33°18' W 118°13'.

Type: Ship. MMSI: 309933000.

Date/timePositionNaut miles runAvg speedWind from/ knotsBaromVisibWave heightAir tempDewpointWater temp
2018-Feb-20 14:38N 33°18' W 118°13'111.7
2018-Feb-20 14:30N 33°18' W 118°11'612.6
2018-Feb-20 14:00N 33°15' W 118°04'4 7.1
2018-Feb-20 13:30N 33°12' W 118°05'5 6.9
2018-Feb-20 12:48N 33°07' W 118°06'3 7.8
2018-Feb-20 12:29N 33°05' W 118°05'4 7.6
2018-Feb-20 12:00N 33°02' W 118°03'4 7.5
2018-Feb-20 11:30N 32°58' W 118°01'4 8.1
2018-Feb-20 11:00N 32°55' W 117°59'4 7.9
2018-Feb-20 10:30N 32°51' W 117°57'4 8.3
2018-Feb-20 10:00N 32°47' W 117°55'8 9.7
2018-Feb-20 09:08N 32°40' W 117°50'1 9.5
2018-Feb-20 09:00N 32°39' W 117°50'5 9.8
2018-Feb-20 08:27N 32°33' W 117°50'9 1.1
2018-Feb-20 00:00N 32°42' W 117°48'24 2.4 310 / 161020.3 5.4 13.0 5.116.0
2018-Feb-19 14:00N 32°18' W 117°48'2 5.0 310 / 351018.210.8 12.0 8.317.0
2018-Feb-19 13:41N 32°19' W 117°49'1 7.1
2018-Feb-19 13:29N 32°21' W 117°48'4 7.3
2018-Feb-19 13:00N 32°24' W 117°48'4 7.3
2018-Feb-19 12:27N 32°28' W 117°47'3 7.4
2018-Feb-19 11:59N 32°32' W 117°46'4 7.5
2018-Feb-19 11:30N 32°35' W 117°46'4 7.2
2018-Feb-19 11:00N 32°39' W 117°46'4342.1
2018-Feb-19 11:00N 32°36' W 117°42'815.7 320 / 251016.2 5.4 12.0 8.316.0
2018-Feb-19 10:30N 32°42' W 117°47'4 7.3
2018-Feb-19 10:00N 32°46' W 117°48'4 7.3
2018-Feb-19 09:30N 32°49' W 117°49'4 7.2
2018-Feb-19 08:58N 32°53' W 117°50'3 7.2
2018-Feb-19 08:30N 32°57' W 117°50'4 7.4
2018-Feb-19 08:00N 33°00' W 117°51'2149.3
2018-Feb-19 08:00N 33°00' W 117°48'510.6 300 / 241017.210.8 13.0 7.416.8
2018-Feb-19 07:30N 33°03' W 117°53'4 7.1
2018-Feb-19 07:00N 33°06' W 117°56'3 7.0
2018-Feb-19 06:30N 33°09' W 117°58'3 7.0
2018-Feb-19 06:00N 33°11' W 118°01'4 7.3
2018-Feb-19 05:30N 33°14' W 118°03'14 8.5
2018-Feb-19 03:48N 33°28' W 118°10'3 8.5
2018-Feb-19 03:27N 33°31' W 118°11'4 8.9
2018-Feb-19 02:57N 33°35' W 118°13'4 8.5
2018-Feb-19 02:30N 33°38' W 118°12'4 8.2
2018-Feb-19 02:00N 33°43' W 118°11'3 5.0
2018-Feb-19 01:29N 33°45' W 118°11'0 0.0
2018-Feb-19 00:59N 33°45' W 118°11'0 0.0
2018-Feb-19 00:29N 33°45' W 118°11'0 0.0
2018-Feb-18 23:59N 33°45' W 118°11'0 0.0
2018-Feb-18 23:28N 33°45' W 118°11'0 0.0
2018-Feb-18 22:58N 33°45' W 118°11'0 0.0
2018-Feb-18 22:28N 33°45' W 118°11'0 0.0
2018-Feb-18 21:55N 33°45' W 118°11'0 0.0
2018-Feb-18 21:25N 33°45' W 118°11'0 0.0
2018-Feb-18 20:57N 33°45' W 118°11'0 0.0
2018-Feb-18 20:30N 33°45' W 118°11'0 0.0
2018-Feb-18 19:54N 33°45' W 118°11'0 0.0
2018-Feb-18 19:30N 33°45' W 118°11'0 0.0
2018-Feb-18 18:59N 33°45' W 118°11'0 0.0
2018-Feb-18 18:26N 33°45' W 118°11'0 0.0
2018-Feb-18 17:56N 33°45' W 118°11'0 0.0
2018-Feb-18 17:26N 33°45' W 118°11'0 0.0
2018-Feb-18 16:59N 33°45' W 118°11'0 0.0
2018-Feb-18 16:28N 33°45' W 118°11'0 0.0
2018-Feb-18 15:58N 33°45' W 118°11'0 0.0
2018-Feb-18 15:28N 33°45' W 118°11'0 0.0
2018-Feb-18 14:58N 33°45' W 118°11'0 0.0
2018-Feb-18 14:28N 33°45' W 118°11'0 0.0
2018-Feb-18 14:00N 33°45' W 118°11'0 0.6
2018-Feb-18 13:30N 33°45' W 118°11'3 6.9
2018-Feb-18 13:00N 33°41' W 118°11'4 7.9
2018-Feb-18 12:30N 33°38' W 118°10'4 7.0
2018-Feb-18 12:00N 33°34' W 118°09'4 7.1
2018-Feb-18 11:30N 33°31' W 118°08'3 6.5
2018-Feb-18 11:00N 33°28' W 118°06'3 6.5
2018-Feb-18 10:30N 33°25' W 118°05'3 6.6
2018-Feb-18 10:00N 33°22' W 118°03'5358.8
2018-Feb-18 10:00N 33°18' W 118°00'2 3.3 350 / 31020.3 5.4 15.013.317.0
2018-Feb-18 09:30N 33°18' W 118°02'3 6.7
2018-Feb-18 09:00N 33°15' W 118°00'3 6.8
2018-Feb-18 08:30N 33°12' W 117°59'3 6.8
2018-Feb-18 08:00N 33°09' W 117°57'4 7.0
2018-Feb-18 07:30N 33°06' W 117°56'3 6.9
2018-Feb-18 07:00N 33°03' W 117°54'3173.1
2018-Feb-18 07:00N 33°00' W 117°54'1 2.7 010 / 51021.310.8 15.013.316.8
2018-Feb-18 06:30N 32°59' W 117°53'3 6.9
2018-Feb-18 06:00N 32°56' W 117°51'3 6.9
2018-Feb-18 05:30N 32°53' W 117°50'3 6.9
2018-Feb-18 05:00N 32°49' W 117°49'3 6.5
2018-Feb-18 04:30N 32°46' W 117°48'3 6.6
2018-Feb-18 03:59N 32°43' W 117°48'3 6.7
2018-Feb-18 03:30N 32°40' W 117°47'4 6.8
2018-Feb-18 02:56N 32°36' W 117°47'3 6.9
2018-Feb-18 02:29N 32°33' W 117°46'3 6.8
2018-Feb-18 02:00N 32°30' W 117°46'3 6.8
2018-Feb-18 01:30N 32°26' W 117°46'4 7.0
2018-Feb-18 01:00N 32°23' W 117°45'3 6.9
2018-Feb-18 00:30N 32°19' W 117°45'3 6.9
2018-Feb-18 00:00N 32°16' W 117°44'3 6.7
2018-Feb-17 23:30N 32°12' W 117°44'3 6.6
2018-Feb-17 23:01N 32°09' W 117°43'3197.0
2018-Feb-17 23:00N 32°06' W 117°42'1 1.6 350 / 101023.3 5.4 18.011.217.0
2018-Feb-17 22:30N 32°06' W 117°43'3 6.8
2018-Feb-17 22:00N 32°02' W 117°42'4 6.8
2018-Feb-17 21:22N 31°58' W 117°42'2 6.4
2018-Feb-17 21:00N 31°56' W 117°43'3 6.7
2018-Feb-17 20:30N 31°53' W 117°43'3 6.9
2018-Feb-17 20:00N 31°49' W 117°42'3 6.0
2018-Feb-17 19:28N 31°46' W 117°44'3 6.9
2018-Feb-17 19:00N 31°45' W 117°47'4 6.9
2018-Feb-17 18:29N 31°43' W 117°51'3 6.9
2018-Feb-17 18:00N 31°42' W 117°55'3 6.6
2018-Feb-17 17:30N 31°40' W 117°58'3 6.7
2018-Feb-17 17:00N 31°42' W 118°02'3 6.8
2018-Feb-17 16:30N 31°43' W 118°05'4 6.6
2018-Feb-17 15:58N 31°45' W 118°09'3 6.5
2018-Feb-17 15:30N 31°45' W 118°13'3 6.4
2018-Feb-17 15:00N 31°41' W 118°13'4 6.5
2018-Feb-17 14:27N 31°38' W 118°12'3 7.1
2018-Feb-17 13:59N 31°35' W 118°12'1111.1
2018-Feb-17 13:00N 31°30' W 118°00'5158.0 020 / 81023.310.8 16.010.817.0
2018-Feb-17 12:58N 31°33' W 118°04'3 6.9
2018-Feb-17 12:30N 31°33' W 118°01'5 6.9
2018-Feb-17 11:50N 31°34' W 117°55'2 6.9
2018-Feb-17 11:29N 31°35' W 117°53'4 6.9
2018-Feb-17 10:52N 31°38' W 117°49'9 6.8
2018-Feb-17 09:30N 31°41' W 117°39'4 7.1
2018-Feb-17 09:00N 31°43' W 117°35'5317.5
2018-Feb-17 09:00N 31°42' W 117°30'10 5.1 360 / 151022.3 5.4 17.010.017.0
2018-Feb-17 07:00N 31°42' W 117°18'25 1.2 360 / 171023.310.8 17.010.017.0
2018-Feb-16 11:00N 32°06' W 117°24'1011.3 020 / 151023.3 5.4 16.012.717.0
2018-Feb-16 10:04N 32°13' W 117°33'115.8
2018-Feb-16 10:00N 32°14' W 117°34'815.9
2018-Feb-16 09:30N 32°20' W 117°40'816.0
2018-Feb-16 09:00N 32°27' W 117°44'816.1
2018-Feb-16 08:30N 32°35' W 117°47'816.0
2018-Feb-16 08:00N 32°42' W 117°50'816.0
2018-Feb-16 07:30N 32°50' W 117°53'816.0
2018-Feb-16 07:01N 32°57' W 117°57'4229.0
2018-Feb-16 07:00N 32°54' W 117°54'1122.4 010 / 111023.310.8 16.010.816.7
2018-Feb-16 06:30N 33°03' W 118°01'5 9.4
2018-Feb-16 06:00N 33°07' W 118°03'4 8.6
2018-Feb-16 05:30N 33°12' W 118°03'4 9.0
2018-Feb-16 05:00N 33°16' W 118°05'5 9.2
2018-Feb-16 04:30N 33°20' W 118°07'5 9.1
2018-Feb-16 04:00N 33°25' W 118°08'5 9.0
2018-Feb-16 03:30N 33°29' W 118°10'5 9.0
2018-Feb-16 03:00N 33°33' W 118°12'4 8.7
2018-Feb-16 02:30N 33°37' W 118°13'510.4
2018-Feb-16 02:00N 33°42' W 118°11'3 5.3
2018-Feb-16 01:29N 33°45' W 118°11'0 0.0
2018-Feb-16 00:59N 33°45' W 118°11'0 0.0
2018-Feb-16 00:29N 33°45' W 118°11'0 0.0
2018-Feb-15 23:59N 33°45' W 118°11'0 0.0
2018-Feb-15 23:28N 33°45' W 118°11'0 0.0
2018-Feb-15 22:58N 33°45' W 118°11'0 0.0
2018-Feb-15 22:28N 33°45' W 118°11'0 0.0
2018-Feb-15 21:58N 33°45' W 118°11'0 0.0
2018-Feb-15 21:30N 33°45' W 118°11'0 0.0
2018-Feb-15 21:00N 33°45' W 118°11'0 0.0
2018-Feb-15 20:30N 33°45' W 118°11'0 0.0
2018-Feb-15 20:00N 33°45' W 118°11'0 0.0
2018-Feb-15 19:30N 33°45' W 118°11'0 0.0
2018-Feb-15 18:59N 33°45' W 118°11'0 0.0
2018-Feb-15 18:29N 33°45' W 118°11'0 0.0
2018-Feb-15 17:59N 33°45' W 118°11'0 0.0
2018-Feb-15 17:29N 33°45' W 118°11'0 0.0
2018-Feb-15 16:59N 33°45' W 118°11'0 0.0
2018-Feb-15 16:28N 33°45' W 118°11'0 0.0
2018-Feb-15 15:58N 33°45' W 118°11'0 0.0
2018-Feb-15 15:28N 33°45' W 118°11'0 0.0
2018-Feb-15 14:58N 33°45' W 118°11'0 0.0
2018-Feb-15 14:24N 33°45' W 118°11'0 0.0
2018-Feb-15 14:00N 33°45' W 118°11'0 0.5
2018-Feb-15 13:30N 33°45' W 118°11'4 6.9
2018-Feb-15 12:59N 33°41' W 118°11'4 7.8
2018-Feb-15 12:30N 33°38' W 118°10'4 7.7
2018-Feb-15 12:00N 33°34' W 118°09'4 7.1
2018-Feb-15 11:30N 33°31' W 118°07'3 7.0
2018-Feb-15 11:00N 33°27' W 118°06'4 7.4
2018-Feb-15 10:31N 33°24' W 118°04'4 7.5
2018-Feb-15 10:00N 33°20' W 118°03'4 7.5
2018-Feb-15 09:30N 33°17' W 118°01'4 7.5
2018-Feb-15 09:00N 33°13' W 117°59'2134.7
2018-Feb-15 09:00N 33°12' W 118°00'3 5.9 350 / 81022.3 5.4 15.013.317.0
2018-Feb-15 08:30N 33°10' W 117°58'4 7.8
2018-Feb-15 08:00N 33°06' W 117°56'4 8.0
2018-Feb-15 07:30N 33°03' W 117°54'4 7.8
2018-Feb-15 07:00N 32°59' W 117°53'4 7.8
2018-Feb-15 06:30N 32°55' W 117°51'4 7.4
2018-Feb-15 06:00N 32°52' W 117°50'4 7.3
2018-Feb-15 05:30N 32°48' W 117°49'4 7.6
2018-Feb-15 05:00N 32°44' W 117°48'4 7.8
2018-Feb-15 04:29N 32°40' W 117°47'6 7.8
2018-Feb-15 03:45N 32°35' W 117°46'4 7.8
2018-Feb-15 03:16N 32°31' W 117°46'3 7.7
2018-Feb-15 02:56N 32°28' W 117°46'3 7.6
2018-Feb-15 02:30N 32°25' W 117°46'37 8.2
2018-Feb-14 22:00N 31°48' W 117°48'27 3.0 150 / 131023.3 5.4 17.015.417.0
2018-Feb-14 13:00N 31°30' W 118°12'26 8.8 130 / 71019.810.8 15.0 9.717.0
2018-Feb-14 10:00N 31°36' W 117°42'21 7.1 130 / 101023.3 5.4 16.010.817.0
2018-Feb-14 07:00N 31°42' W 117°18'19 1.1 140 / 61024.310.8 15.011.617.1
2018-Feb-13 13:00N 31°54' W 117°00'10 5.1 110 / 101021.3 5.4 14.0 8.517.0
2018-Feb-13 11:00N 31°54' W 117°12'3013.8 280 / 51019.3 5.4 13.0 7.415.0
2018-Feb-13 08:51N 32°16' W 117°36'410.2
2018-Feb-13 08:25N 32°19' W 117°39'410.0
2018-Feb-13 07:59N 32°23' W 117°42'510.2
2018-Feb-13 07:30N 32°27' W 117°44'5 9.8
2018-Feb-13 07:01N 32°32' W 117°46'9509.0
2018-Feb-13 07:00N 32°24' W 117°42'1427.4 270 / 141020.310.8 13.0 7.416.6
2018-Feb-13 06:30N 32°37' W 117°48'5 9.8
2018-Feb-13 06:00N 32°42' W 117°48'510.0
2018-Feb-13 05:30N 32°47' W 117°49'510.1
2018-Feb-13 05:00N 32°52' W 117°50'5 9.6
2018-Feb-13 04:30N 32°56' W 117°52'5 9.7
2018-Feb-13 04:00N 32°60' W 117°56'5 9.5
2018-Feb-13 03:31N 33°03' W 117°59'5 9.3
2018-Feb-13 03:00N 33°07' W 118°03'5 9.4
2018-Feb-13 02:29N 33°11' W 118°07'5 9.4
2018-Feb-13 01:59N 33°14' W 118°11'6 0.5
2018-Feb-12 13:20N 33°12' W 118°17'6 6.2
2018-Feb-12 12:19N 33°05' W 118°17'2 6.1
2018-Feb-12 12:00N 33°04' W 118°15'3 6.2
2018-Feb-12 11:30N 33°02' W 118°12'3 6.3
2018-Feb-12 11:00N 32°60' W 118°09'3 6.4
2018-Feb-12 10:30N 32°58' W 118°07'3 6.3
2018-Feb-12 10:00N 32°55' W 118°04'4282.5
2018-Feb-12 10:00N 32°54' W 118°00'1 2.8 300 / 171014.2 5.4 16.010.817.0
2018-Feb-12 09:30N 32°53' W 118°01'3 6.0
2018-Feb-12 09:00N 32°52' W 117°58'3 6.4
2018-Feb-12 08:30N 32°54' W 117°55'3 6.5
2018-Feb-12 08:00N 32°57' W 117°56'4257.6
2018-Feb-12 08:00N 32°54' W 117°54'713.9 220 / 41017.210.8 15.011.617.0
2018-Feb-12 07:30N 33°00' W 117°57'3 6.6
2018-Feb-12 07:00N 33°03' W 117°59'3 6.6
2018-Feb-12 06:30N 33°06' W 118°00'3 6.7
2018-Feb-12 06:00N 33°09' W 118°01'4 7.0
2018-Feb-12 05:29N 33°13' W 118°03'4 7.4
2018-Feb-12 05:00N 33°16' W 118°05'5 9.1
2018-Feb-12 04:30N 33°20' W 118°07'5 9.0
2018-Feb-12 03:58N 33°25' W 118°09'4 9.0
2018-Feb-12 03:30N 33°29' W 118°10'5 9.0
2018-Feb-12 02:59N 33°33' W 118°12'4 8.7
2018-Feb-12 02:30N 33°37' W 118°13'4 8.8
2018-Feb-12 02:00N 33°42' W 118°11'3 6.0
2018-Feb-12 01:26N 33°45' W 118°11'0 0.0
2018-Feb-12 00:59N 33°45' W 118°11'0 0.0
2018-Feb-12 00:29N 33°45' W 118°11'0 0.0
2018-Feb-11 23:59N 33°45' W 118°11'0 0.0
2018-Feb-11 23:29N 33°45' W 118°11'0 0.0
2018-Feb-11 22:58N 33°45' W 118°11'0 0.0
2018-Feb-11 22:28N 33°45' W 118°11'0 0.0
2018-Feb-11 21:58N 33°45' W 118°11'0 0.0
2018-Feb-11 21:28N 33°45' W 118°11'0 0.0
2018-Feb-11 21:00N 33°45' W 118°11'0 0.0
2018-Feb-11 20:30N 33°45' W 118°11'0 0.0
2018-Feb-11 19:57N 33°45' W 118°11'0 0.0
2018-Feb-11 19:30N 33°45' W 118°11'0 0.0
2018-Feb-11 19:00N 33°45' W 118°11'0 0.0
2018-Feb-11 18:29N 33°45' W 118°11'0 0.0
2018-Feb-11 17:59N 33°45' W 118°11'0 0.0
2018-Feb-11 17:26N 33°45' W 118°11'0 0.0
2018-Feb-11 16:59N 33°45' W 118°11'0 0.0
2018-Feb-11 16:29N 33°45' W 118°11'0 0.0
2018-Feb-11 15:55N 33°45' W 118°11'0 0.0
2018-Feb-11 15:28N 33°45' W 118°11'0 0.0
2018-Feb-11 14:58N 33°45' W 118°11'0 0.0
2018-Feb-11 14:28N 33°45' W 118°11'0 0.0
2018-Feb-11 13:58N 33°45' W 118°11'0 0.6
2018-Feb-11 13:31N 33°45' W 118°11'3 6.8
2018-Feb-11 13:00N 33°41' W 118°11'4 7.8
2018-Feb-11 12:30N 33°38' W 118°10'4 7.9
2018-Feb-11 12:00N 33°34' W 118°09'4 7.1
2018-Feb-11 11:30N 33°30' W 118°07'3 6.9
2018-Feb-11 11:00N 33°27' W 118°06'3 6.4
2018-Feb-11 10:30N 33°24' W 118°04'4 6.8
2018-Feb-11 09:55N 33°21' W 118°03'3 6.8
2018-Feb-11 09:30N 33°18' W 118°02'4 7.5
2018-Feb-11 09:00N 33°14' W 117°60'2157.9
2018-Feb-11 09:00N 33°12' W 118°00'2 3.6 070 / 61016.2 5.4 15.011.616.0
2018-Feb-11 08:30N 33°11' W 117°58'4 7.3
2018-Feb-11 07:59N 33°07' W 117°57'3 7.3
2018-Feb-11 07:30N 33°04' W 117°55'4 7.3
2018-Feb-11 07:00N 33°01' W 117°54'143.3
2018-Feb-11 07:00N 33°00' W 117°54'3 6.4 120 / 41017.310.8 15.011.617.0
2018-Feb-11 06:30N 32°57' W 117°52'4 7.3
2018-Feb-11 06:00N 32°54' W 117°51'4 7.1
2018-Feb-11 05:30N 32°50' W 117°50'4 7.1
2018-Feb-11 05:00N 32°47' W 117°49'3 6.8
2018-Feb-11 04:30N 32°44' W 117°48'3 6.9
2018-Feb-11 04:00N 32°40' W 117°47'5 7.5
2018-Feb-11 03:19N 32°35' W 117°47'9 7.6
2018-Feb-11 02:10N 32°26' W 117°46'1 7.5
2018-Feb-11 02:00N 32°25' W 117°46'18 7.5
2018-Feb-10 23:35N 32°07' W 117°44'1 7.4
2018-Feb-10 23:30N 32°07' W 117°44'13 8.4
2018-Feb-10 22:00N 31°54' W 117°42'1 3.2 240 / 131015.2 5.4 17.011.917.0
2018-Feb-10 21:43N 31°53' W 117°43'3 7.4
2018-Feb-10 21:19N 31°50' W 117°43'12 6.8
2018-Feb-10 19:28N 31°43' W 117°54'11 3.3
2018-Feb-10 16:16N 31°44' W 118°06'2 6.7
2018-Feb-10 16:00N 31°44' W 118°08'3 6.5
2018-Feb-10 15:30N 31°45' W 118°12'3 5.8
2018-Feb-10 15:00N 31°42' W 118°13'  
Track history (hours):
 
Tides and Currents Weather Stations Pressure Air Temp Water Temp Dewpoint Dewpoint Depression Visibility Wind Speed Wind Dir Waves Ship Positions

Imagination

Operator: Carnival Cruise Lines

Last reported at 2018-Feb-20 14:38 UTC. Time now 2018-Feb-20 15:30 UTC.
Position N 33°18' W 118°13'.

Type: Ship. MMSI: 309933000.

Date/timePositionNaut miles runAvg speedWind from/ knotsBaromVisibWave heightAir tempDewpointWater temp
2018-Feb-20 14:38N 33°18' W 118°13'111.7
2018-Feb-20 14:30N 33°18' W 118°11'612.6
2018-Feb-20 14:00N 33°15' W 118°04'4 7.1
2018-Feb-20 13:30N 33°12' W 118°05'5 6.9
2018-Feb-20 12:48N 33°07' W 118°06'3 7.8
2018-Feb-20 12:29N 33°05' W 118°05'4 7.6
2018-Feb-20 12:00N 33°02' W 118°03'4 7.5
2018-Feb-20 11:30N 32°58' W 118°01'4 8.1
2018-Feb-20 11:00N 32°55' W 117°59'4 7.9
2018-Feb-20 10:30N 32°51' W 117°57'4 8.3
2018-Feb-20 10:00N 32°47' W 117°55'8 9.7
2018-Feb-20 09:08N 32°40' W 117°50'1 9.5
2018-Feb-20 09:00N 32°39' W 117°50'5 9.8
2018-Feb-20 08:27N 32°33' W 117°50'9 1.1
2018-Feb-20 00:00N 32°42' W 117°48'24 2.4 310 / 161020.3 5.4 13.0 5.116.0
2018-Feb-19 14:00N 32°18' W 117°48'2 5.0 310 / 351018.210.8 12.0 8.317.0
2018-Feb-19 13:41N 32°19' W 117°49'1 7.1
2018-Feb-19 13:29N 32°21' W 117°48'4 7.3
2018-Feb-19 13:00N 32°24' W 117°48'4 7.3
2018-Feb-19 12:27N 32°28' W 117°47'3 7.4
2018-Feb-19 11:59N 32°32' W 117°46'4 7.5
2018-Feb-19 11:30N 32°35' W 117°46'4 7.2
2018-Feb-19 11:00N 32°39' W 117°46'4342.1
2018-Feb-19 11:00N 32°36' W 117°42'815.7 320 / 251016.2 5.4 12.0 8.316.0
2018-Feb-19 10:30N 32°42' W 117°47'4 7.3
2018-Feb-19 10:00N 32°46' W 117°48'4 7.3
2018-Feb-19 09:30N 32°49' W 117°49'4 7.2
2018-Feb-19 08:58N 32°53' W 117°50'3 7.2
2018-Feb-19 08:30N 32°57' W 117°50'4 7.4
2018-Feb-19 08:00N 33°00' W 117°51'2149.3
2018-Feb-19 08:00N 33°00' W 117°48'510.6 300 / 241017.210.8 13.0 7.416.8
2018-Feb-19 07:30N 33°03' W 117°53'4 7.1
2018-Feb-19 07:00N 33°06' W 117°56'3 7.0
2018-Feb-19 06:30N 33°09' W 117°58'3 7.0
2018-Feb-19 06:00N 33°11' W 118°01'4 7.3
2018-Feb-19 05:30N 33°14' W 118°03'14 8.5
2018-Feb-19 03:48N 33°28' W 118°10'3 8.5
2018-Feb-19 03:27N 33°31' W 118°11'4 8.9
2018-Feb-19 02:57N 33°35' W 118°13'4 8.5
2018-Feb-19 02:30N 33°38' W 118°12'4 8.2
2018-Feb-19 02:00N 33°43' W 118°11'3 5.0
2018-Feb-19 01:29N 33°45' W 118°11'0 0.0
2018-Feb-19 00:59N 33°45' W 118°11'0 0.0
2018-Feb-19 00:29N 33°45' W 118°11'0 0.0
2018-Feb-18 23:59N 33°45' W 118°11'0 0.0
2018-Feb-18 23:28N 33°45' W 118°11'0 0.0
2018-Feb-18 22:58N 33°45' W 118°11'0 0.0
2018-Feb-18 22:28N 33°45' W 118°11'0 0.0
2018-Feb-18 21:55N 33°45' W 118°11'0 0.0
2018-Feb-18 21:25N 33°45' W 118°11'0 0.0
2018-Feb-18 20:57N 33°45' W 118°11'0 0.0
2018-Feb-18 20:30N 33°45' W 118°11'0 0.0
2018-Feb-18 19:54N 33°45' W 118°11'0 0.0
2018-Feb-18 19:30N 33°45' W 118°11'0 0.0
2018-Feb-18 18:59N 33°45' W 118°11'0 0.0
2018-Feb-18 18:26N 33°45' W 118°11'0 0.0
2018-Feb-18 17:56N 33°45' W 118°11'0 0.0
2018-Feb-18 17:26N 33°45' W 118°11'0 0.0
2018-Feb-18 16:59N 33°45' W 118°11'0 0.0
2018-Feb-18 16:28N 33°45' W 118°11'0 0.0
2018-Feb-18 15:58N 33°45' W 118°11'0 0.0
2018-Feb-18 15:28N 33°45' W 118°11'0 0.0
2018-Feb-18 14:58N 33°45' W 118°11'0 0.0
2018-Feb-18 14:28N 33°45' W 118°11'0 0.0
2018-Feb-18 14:00N 33°45' W 118°11'0 0.6
2018-Feb-18 13:30N 33°45' W 118°11'3 6.9
2018-Feb-18 13:00N 33°41' W 118°11'4 7.9
2018-Feb-18 12:30N 33°38' W 118°10'4 7.0
2018-Feb-18 12:00N 33°34' W 118°09'4 7.1
2018-Feb-18 11:30N 33°31' W 118°08'3 6.5
2018-Feb-18 11:00N 33°28' W 118°06'3 6.5
2018-Feb-18 10:30N 33°25' W 118°05'3 6.6
2018-Feb-18 10:00N 33°22' W 118°03'5358.8
2018-Feb-18 10:00N 33°18' W 118°00'2 3.3 350 / 31020.3 5.4 15.013.317.0
2018-Feb-18 09:30N 33°18' W 118°02'3 6.7
2018-Feb-18 09:00N 33°15' W 118°00'3 6.8
2018-Feb-18 08:30N 33°12' W 117°59'3 6.8
2018-Feb-18 08:00N 33°09' W 117°57'4 7.0
2018-Feb-18 07:30N 33°06' W 117°56'3 6.9
2018-Feb-18 07:00N 33°03' W 117°54'3173.1
2018-Feb-18 07:00N 33°00' W 117°54'1 2.7 010 / 51021.310.8 15.013.316.8
2018-Feb-18 06:30N 32°59' W 117°53'3 6.9
2018-Feb-18 06:00N 32°56' W 117°51'3 6.9
2018-Feb-18 05:30N 32°53' W 117°50'3 6.9
2018-Feb-18 05:00N 32°49' W 117°49'3 6.5
2018-Feb-18 04:30N 32°46' W 117°48'3 6.6
2018-Feb-18 03:59N 32°43' W 117°48'3 6.7
2018-Feb-18 03:30N 32°40' W 117°47'4 6.8
2018-Feb-18 02:56N 32°36' W 117°47'3 6.9
2018-Feb-18 02:29N 32°33' W 117°46'3 6.8
2018-Feb-18 02:00N 32°30' W 117°46'3 6.8
2018-Feb-18 01:30N 32°26' W 117°46'4 7.0
2018-Feb-18 01:00N 32°23' W 117°45'3 6.9
2018-Feb-18 00:30N 32°19' W 117°45'3 6.9
2018-Feb-18 00:00N 32°16' W 117°44'3 6.7
2018-Feb-17 23:30N 32°12' W 117°44'3 6.6
2018-Feb-17 23:01N 32°09' W 117°43'3197.0
2018-Feb-17 23:00N 32°06' W 117°42'1 1.6 350 / 101023.3 5.4 18.011.217.0
2018-Feb-17 22:30N 32°06' W 117°43'3 6.8
2018-Feb-17 22:00N 32°02' W 117°42'4 6.8
2018-Feb-17 21:22N 31°58' W 117°42'2 6.4
2018-Feb-17 21:00N 31°56' W 117°43'3 6.7
2018-Feb-17 20:30N 31°53' W 117°43'3 6.9
2018-Feb-17 20:00N 31°49' W 117°42'3 6.0
2018-Feb-17 19:28N 31°46' W 117°44'3 6.9
2018-Feb-17 19:00N 31°45' W 117°47'4 6.9
2018-Feb-17 18:29N 31°43' W 117°51'3 6.9
2018-Feb-17 18:00N 31°42' W 117°55'3 6.6
2018-Feb-17 17:30N 31°40' W 117°58'3 6.7
2018-Feb-17 17:00N 31°42' W 118°02'3 6.8
2018-Feb-17 16:30N 31°43' W 118°05'4 6.6
2018-Feb-17 15:58N 31°45' W 118°09'3 6.5
2018-Feb-17 15:30N 31°45' W 118°13'3 6.4
2018-Feb-17 15:00N 31°41' W 118°13'4 6.5
2018-Feb-17 14:27N 31°38' W 118°12'3 7.1
2018-Feb-17 13:59N 31°35' W 118°12'1111.1
2018-Feb-17 13:00N 31°30' W 118°00'5158.0 020 / 81023.310.8 16.010.817.0
2018-Feb-17 12:58N 31°33' W 118°04'3 6.9
2018-Feb-17 12:30N 31°33' W 118°01'5 6.9
2018-Feb-17 11:50N 31°34' W 117°55'2 6.9
2018-Feb-17 11:29N 31°35' W 117°53'4 6.9
2018-Feb-17 10:52N 31°38' W 117°49'9 6.8
2018-Feb-17 09:30N 31°41' W 117°39'4 7.1
2018-Feb-17 09:00N 31°43' W 117°35'5317.5
2018-Feb-17 09:00N 31°42' W 117°30'10 5.1 360 / 151022.3 5.4 17.010.017.0
2018-Feb-17 07:00N 31°42' W 117°18'25 1.2 360 / 171023.310.8 17.010.017.0
2018-Feb-16 11:00N 32°06' W 117°24'1011.3 020 / 151023.3 5.4 16.012.717.0
2018-Feb-16 10:04N 32°13' W 117°33'115.8
2018-Feb-16 10:00N 32°14' W 117°34'815.9
2018-Feb-16 09:30N 32°20' W 117°40'816.0
2018-Feb-16 09:00N 32°27' W 117°44'816.1
2018-Feb-16 08:30N 32°35' W 117°47'816.0
2018-Feb-16 08:00N 32°42' W 117°50'816.0
2018-Feb-16 07:30N 32°50' W 117°53'816.0
2018-Feb-16 07:01N 32°57' W 117°57'4229.0
2018-Feb-16 07:00N 32°54' W 117°54'1122.4 010 / 111023.310.8 16.010.816.7
2018-Feb-16 06:30N 33°03' W 118°01'5 9.4
2018-Feb-16 06:00N 33°07' W 118°03'4 8.6
2018-Feb-16 05:30N 33°12' W 118°03'4 9.0
2018-Feb-16 05:00N 33°16' W 118°05'5 9.2
2018-Feb-16 04:30N 33°20' W 118°07'5 9.1
2018-Feb-16 04:00N 33°25' W 118°08'5 9.0
2018-Feb-16 03:30N 33°29' W 118°10'5 9.0
2018-Feb-16 03:00N 33°33' W 118°12'4 8.7
2018-Feb-16 02:30N 33°37' W 118°13'510.4
2018-Feb-16 02:00N 33°42' W 118°11'3 5.3
2018-Feb-16 01:29N 33°45' W 118°11'0 0.0
2018-Feb-16 00:59N 33°45' W 118°11'0 0.0
2018-Feb-16 00:29N 33°45' W 118°11'0 0.0
2018-Feb-15 23:59N 33°45' W 118°11'0 0.0
2018-Feb-15 23:28N 33°45' W 118°11'0 0.0
2018-Feb-15 22:58N 33°45' W 118°11'0 0.0
2018-Feb-15 22:28N 33°45' W 118°11'0 0.0
2018-Feb-15 21:58N 33°45' W 118°11'0 0.0
2018-Feb-15 21:30N 33°45' W 118°11'0 0.0
2018-Feb-15 21:00N 33°45' W 118°11'0 0.0
2018-Feb-15 20:30N 33°45' W 118°11'0 0.0
2018-Feb-15 20:00N 33°45' W 118°11'0 0.0
2018-Feb-15 19:30N 33°45' W 118°11'0 0.0
2018-Feb-15 18:59N 33°45' W 118°11'0 0.0
2018-Feb-15 18:29N 33°45' W 118°11'0 0.0
2018-Feb-15 17:59N 33°45' W 118°11'0 0.0
2018-Feb-15 17:29N 33°45' W 118°11'0 0.0
2018-Feb-15 16:59N 33°45' W 118°11'0 0.0
2018-Feb-15 16:28N 33°45' W 118°11'0 0.0
2018-Feb-15 15:58N 33°45' W 118°11'0 0.0
2018-Feb-15 15:28N 33°45' W 118°11'0 0.0
2018-Feb-15 14:58N 33°45' W 118°11'0 0.0
2018-Feb-15 14:24N 33°45' W 118°11'0 0.0
2018-Feb-15 14:00N 33°45' W 118°11'0 0.5
2018-Feb-15 13:30N 33°45' W 118°11'4 6.9
2018-Feb-15 12:59N 33°41' W 118°11'4 7.8
2018-Feb-15 12:30N 33°38' W 118°10'4 7.7
2018-Feb-15 12:00N 33°34' W 118°09'4 7.1
2018-Feb-15 11:30N 33°31' W 118°07'3 7.0
2018-Feb-15 11:00N 33°27' W 118°06'4 7.4
2018-Feb-15 10:31N 33°24' W 118°04'4 7.5
2018-Feb-15 10:00N 33°20' W 118°03'4 7.5
2018-Feb-15 09:30N 33°17' W 118°01'4 7.5
2018-Feb-15 09:00N 33°13' W 117°59'2134.7
2018-Feb-15 09:00N 33°12' W 118°00'3 5.9 350 / 81022.3 5.4 15.013.317.0
2018-Feb-15 08:30N 33°10' W 117°58'4 7.8
2018-Feb-15 08:00N 33°06' W 117°56'4 8.0
2018-Feb-15 07:30N 33°03' W 117°54'4 7.8
2018-Feb-15 07:00N 32°59' W 117°53'4 7.8
2018-Feb-15 06:30N 32°55' W 117°51'4 7.4
2018-Feb-15 06:00N 32°52' W 117°50'4 7.3
2018-Feb-15 05:30N 32°48' W 117°49'4 7.6
2018-Feb-15 05:00N 32°44' W 117°48'4 7.8
2018-Feb-15 04:29N 32°40' W 117°47'6 7.8
2018-Feb-15 03:45N 32°35' W 117°46'4 7.8
2018-Feb-15 03:16N 32°31' W 117°46'3 7.7
2018-Feb-15 02:56N 32°28' W 117°46'3 7.6
2018-Feb-15 02:30N 32°25' W 117°46'37 8.2
2018-Feb-14 22:00N 31°48' W 117°48'27 3.0 150 / 131023.3 5.4 17.015.417.0
2018-Feb-14 13:00N 31°30' W 118°12'26 8.8 130 / 71019.810.8 15.0 9.717.0
2018-Feb-14 10:00N 31°36' W 117°42'21 7.1 130 / 101023.3 5.4 16.010.817.0
2018-Feb-14 07:00N 31°42' W 117°18'19 1.1 140 / 61024.310.8 15.011.617.1
2018-Feb-13 13:00N 31°54' W 117°00'10 5.1 110 / 101021.3 5.4 14.0 8.517.0
2018-Feb-13 11:00N 31°54' W 117°12'3013.8 280 / 51019.3 5.4 13.0 7.415.0
2018-Feb-13 08:51N 32°16' W 117°36'410.2
2018-Feb-13 08:25N 32°19' W 117°39'410.0
2018-Feb-13 07:59N 32°23' W 117°42'510.2
2018-Feb-13 07:30N 32°27' W 117°44'5 9.8
2018-Feb-13 07:01N 32°32' W 117°46'9509.0
2018-Feb-13 07:00N 32°24' W 117°42'1427.4 270 / 141020.310.8 13.0 7.416.6
2018-Feb-13 06:30N 32°37' W 117°48'5 9.8
2018-Feb-13 06:00N 32°42' W 117°48'510.0
2018-Feb-13 05:30N 32°47' W 117°49'510.1
2018-Feb-13 05:00N 32°52' W 117°50'5 9.6
2018-Feb-13 04:30N 32°56' W 117°52'5 9.7
2018-Feb-13 04:00N 32°60' W 117°56'5 9.5
2018-Feb-13 03:31N 33°03' W 117°59'5 9.3
2018-Feb-13 03:00N 33°07' W 118°03'5 9.4
2018-Feb-13 02:29N 33°11' W 118°07'5 9.4
2018-Feb-13 01:59N 33°14' W 118°11'6 0.5
2018-Feb-12 13:20N 33°12' W 118°17'6 6.2
2018-Feb-12 12:19N 33°05' W 118°17'2 6.1
2018-Feb-12 12:00N 33°04' W 118°15'3 6.2
2018-Feb-12 11:30N 33°02' W 118°12'3 6.3
2018-Feb-12 11:00N 32°60' W 118°09'3 6.4
2018-Feb-12 10:30N 32°58' W 118°07'3 6.3
2018-Feb-12 10:00N 32°55' W 118°04'4282.5
2018-Feb-12 10:00N 32°54' W 118°00'1 2.8 300 / 171014.2 5.4 16.010.817.0
2018-Feb-12 09:30N 32°53' W 118°01'3 6.0
2018-Feb-12 09:00N 32°52' W 117°58'3 6.4
2018-Feb-12 08:30N 32°54' W 117°55'3 6.5
2018-Feb-12 08:00N 32°57' W 117°56'4257.6
2018-Feb-12 08:00N 32°54' W 117°54'713.9 220 / 41017.210.8 15.011.617.0
2018-Feb-12 07:30N 33°00' W 117°57'3 6.6
2018-Feb-12 07:00N 33°03' W 117°59'3 6.6
2018-Feb-12 06:30N 33°06' W 118°00'3 6.7
2018-Feb-12 06:00N 33°09' W 118°01'4 7.0
2018-Feb-12 05:29N 33°13' W 118°03'4 7.4
2018-Feb-12 05:00N 33°16' W 118°05'5 9.1
2018-Feb-12 04:30N 33°20' W 118°07'5 9.0
2018-Feb-12 03:58N 33°25' W 118°09'4 9.0
2018-Feb-12 03:30N 33°29' W 118°10'5 9.0
2018-Feb-12 02:59N 33°33' W 118°12'4 8.7
2018-Feb-12 02:30N 33°37' W 118°13'4 8.8
2018-Feb-12 02:00N 33°42' W 118°11'3 6.0
2018-Feb-12 01:26N 33°45' W 118°11'0 0.0
2018-Feb-12 00:59N 33°45' W 118°11'0 0.0
2018-Feb-12 00:29N 33°45' W 118°11'0 0.0
2018-Feb-11 23:59N 33°45' W 118°11'0 0.0
2018-Feb-11 23:29N 33°45' W 118°11'0 0.0
2018-Feb-11 22:58N 33°45' W 118°11'0 0.0
2018-Feb-11 22:28N 33°45' W 118°11'0 0.0
2018-Feb-11 21:58N 33°45' W 118°11'0 0.0
2018-Feb-11 21:28N 33°45' W 118°11'0 0.0
2018-Feb-11 21:00N 33°45' W 118°11'0 0.0
2018-Feb-11 20:30N 33°45' W 118°11'0 0.0
2018-Feb-11 19:57N 33°45' W 118°11'0 0.0
2018-Feb-11 19:30N 33°45' W 118°11'0 0.0
2018-Feb-11 19:00N 33°45' W 118°11'0 0.0
2018-Feb-11 18:29N 33°45' W 118°11'0 0.0
2018-Feb-11 17:59N 33°45' W 118°11'0 0.0
2018-Feb-11 17:26N 33°45' W 118°11'0 0.0
2018-Feb-11 16:59N 33°45' W 118°11'0 0.0
2018-Feb-11 16:29N 33°45' W 118°11'0 0.0
2018-Feb-11 15:55N 33°45' W 118°11'0 0.0
2018-Feb-11 15:28N 33°45' W 118°11'0 0.0
2018-Feb-11 14:58N 33°45' W 118°11'0 0.0
2018-Feb-11 14:28N 33°45' W 118°11'0 0.0
2018-Feb-11 13:58N 33°45' W 118°11'0 0.6
2018-Feb-11 13:31N 33°45' W 118°11'3 6.8
2018-Feb-11 13:00N 33°41' W 118°11'4 7.8
2018-Feb-11 12:30N 33°38' W 118°10'4 7.9
2018-Feb-11 12:00N 33°34' W 118°09'4 7.1
2018-Feb-11 11:30N 33°30' W 118°07'3 6.9
2018-Feb-11 11:00N 33°27' W 118°06'3 6.4
2018-Feb-11 10:30N 33°24' W 118°04'4 6.8
2018-Feb-11 09:55N 33°21' W 118°03'3 6.8
2018-Feb-11 09:30N 33°18' W 118°02'4 7.5
2018-Feb-11 09:00N 33°14' W 117°60'2157.9
2018-Feb-11 09:00N 33°12' W 118°00'2 3.6 070 / 61016.2 5.4 15.011.616.0
2018-Feb-11 08:30N 33°11' W 117°58'4 7.3
2018-Feb-11 07:59N 33°07' W 117°57'3 7.3
2018-Feb-11 07:30N 33°04' W 117°55'4 7.3
2018-Feb-11 07:00N 33°01' W 117°54'143.3
2018-Feb-11 07:00N 33°00' W 117°54'3 6.4 120 / 41017.310.8 15.011.617.0
2018-Feb-11 06:30N 32°57' W 117°52'4 7.3
2018-Feb-11 06:00N 32°54' W 117°51'4 7.1
2018-Feb-11 05:30N 32°50' W 117°50'4 7.1
2018-Feb-11 05:00N 32°47' W 117°49'3 6.8
2018-Feb-11 04:30N 32°44' W 117°48'3 6.9
2018-Feb-11 04:00N 32°40' W 117°47'5 7.5
2018-Feb-11 03:19N 32°35' W 117°47'9 7.6
2018-Feb-11 02:10N 32°26' W 117°46'1 7.5
2018-Feb-11 02:00N 32°25' W 117°46'18 7.5
2018-Feb-10 23:35N 32°07' W 117°44'1 7.4
2018-Feb-10 23:30N 32°07' W 117°44'13 8.4
2018-Feb-10 22:00N 31°54' W 117°42'1 3.2 240 / 131015.2 5.4 17.011.917.0
2018-Feb-10 21:43N 31°53' W 117°43'3 7.4
2018-Feb-10 21:19N 31°50' W 117°43'12 6.8
2018-Feb-10 19:28N 31°43' W 117°54'11 3.3
2018-Feb-10 16:16N 31°44' W 118°06'2 6.7
2018-Feb-10 16:00N 31°44' W 118°08'3 6.5
2018-Feb-10 15:30N 31°45' W 118°12'3 5.8
2018-Feb-10 15:00N 31°42' W 118°13'  

Dump ship's entire track history